createdAt,value
2023-01-08T00:02:22.002Z,6.05
2023-01-08T00:04:48.863Z,6.12
2023-01-08T00:07:15.615Z,6.24
2023-01-08T00:09:42.337Z,6.31
2023-01-08T00:12:09.110Z,6.41
2023-01-08T00:14:35.935Z,6.48
2023-01-08T00:17:04.572Z,6.50
2023-01-08T00:19:31.387Z,6.54
2023-01-08T00:21:58.129Z,6.54
2023-01-08T00:24:24.848Z,6.49
2023-01-08T00:26:51.776Z,6.38
2023-01-08T00:29:18.485Z,6.30
2023-01-08T00:31:45.501Z,6.22
2023-01-08T00:34:12.289Z,6.13
2023-01-08T00:36:39.203Z,6.03
2023-01-08T00:39:05.943Z,5.93
2023-01-08T00:41:32.735Z,5.82
2023-01-08T00:43:59.467Z,5.76
2023-01-08T00:46:26.196Z,5.69
2023-01-08T00:48:52.947Z,5.65
2023-01-08T00:51:19.713Z,5.59
2023-01-08T00:53:46.403Z,5.53
2023-01-08T00:56:13.196Z,5.49
2023-01-08T00:58:39.982Z,5.45
2023-01-08T01:01:12.437Z,5.41
2023-01-08T01:03:39.776Z,5.32
2023-01-08T01:06:07.361Z,5.25
2023-01-08T01:08:35.410Z,5.20
2023-01-08T01:11:10.614Z,5.21
2023-01-08T01:13:37.380Z,5.16
2023-01-08T01:16:04.328Z,5.12
2023-01-08T01:18:31.915Z,5.12
2023-01-08T01:20:58.852Z,5.09
2023-01-08T01:23:25.927Z,5.05
2023-01-08T01:25:54.610Z,4.97
2023-01-08T01:28:21.547Z,4.93
2023-01-08T01:30:55.051Z,4.99
2023-01-08T01:33:21.861Z,4.99
2023-01-08T01:35:48.643Z,5.00
2023-01-08T01:38:15.490Z,4.95
2023-01-08T01:40:43.721Z,4.89
2023-01-08T01:43:14.215Z,4.86
2023-01-08T01:45:42.948Z,4.84
2023-01-08T01:48:15.841Z,4.80
2023-01-08T01:50:49.693Z,4.70
2023-01-08T01:53:22.407Z,4.62
2023-01-08T01:55:49.858Z,4.52
2023-01-08T01:58:18.048Z,4.46
2023-01-08T02:00:45.085Z,4.42
2023-01-08T02:03:14.003Z,4.39
2023-01-08T02:05:59.379Z,4.34
2023-01-08T02:08:36.453Z,4.21
2023-01-08T02:11:32.520Z,4.14
2023-01-08T02:14:15.886Z,4.09
2023-01-08T02:16:54.202Z,4.04
2023-01-08T02:19:53.537Z,4.03
2023-01-08T02:22:42.558Z,4.00
2023-01-08T02:25:13.530Z,4.00
2023-01-08T02:27:45.805Z,4.04
2023-01-08T02:30:12.666Z,4.06
2023-01-08T02:32:42.251Z,4.08
2023-01-08T02:35:10.143Z,4.08
2023-01-08T02:37:37.551Z,4.08
2023-01-08T02:40:17.929Z,4.11
2023-01-08T02:43:00.781Z,4.13
2023-01-08T02:45:30.453Z,4.14
2023-01-08T02:48:23.230Z,4.15
2023-01-08T02:50:52.604Z,4.22
2023-01-08T02:53:24.256Z,4.20
2023-01-08T02:55:59.385Z,4.33
2023-01-08T02:58:29.696Z,4.43
2023-01-08T03:00:57.171Z,4.52
2023-01-08T03:03:29.248Z,4.56
2023-01-08T03:06:00.141Z,4.64
2023-01-08T03:08:28.187Z,4.69
2023-01-08T03:11:07.004Z,4.76
2023-01-08T03:13:41.664Z,4.82
2023-01-08T03:16:34.818Z,4.84
2023-01-08T03:19:19.599Z,4.88
2023-01-08T03:21:47.279Z,4.92
2023-01-08T03:24:18.026Z,4.94
2023-01-08T03:26:46.925Z,4.96
2023-01-08T03:29:17.644Z,5.09
2023-01-08T03:31:46.626Z,5.17
2023-01-08T03:34:16.466Z,5.19
2023-01-08T03:36:48.474Z,5.19
2023-01-08T03:39:29.061Z,5.18
2023-01-08T03:42:01.678Z,5.13
2023-01-08T03:44:28.600Z,5.07
2023-01-08T03:46:57.286Z,4.99
2023-01-08T03:49:26.756Z,4.89
2023-01-08T03:51:53.554Z,4.79
2023-01-08T03:54:25.272Z,4.70
2023-01-08T03:56:52.212Z,4.62
2023-01-08T03:59:19.016Z,4.55
2023-01-08T04:01:45.910Z,4.48
2023-01-08T04:04:12.888Z,4.46
2023-01-08T04:06:39.660Z,4.45
2023-01-08T04:09:06.779Z,4.44
2023-01-08T04:11:33.611Z,4.41
2023-01-08T04:14:00.423Z,4.37
2023-01-08T04:16:27.263Z,4.30
2023-01-08T04:18:54.094Z,4.36
2023-01-08T04:21:20.811Z,4.33
2023-01-08T04:23:47.809Z,4.31
2023-01-08T04:26:14.673Z,4.30
2023-01-08T04:28:41.502Z,4.27
2023-01-08T04:31:09.428Z,4.25
2023-01-08T04:33:36.684Z,4.24
2023-01-08T04:36:04.949Z,4.22
2023-01-08T04:38:31.705Z,4.19
2023-01-08T04:41:00.516Z,4.17
2023-01-08T04:43:28.143Z,4.13
2023-01-08T04:46:03.024Z,4.07
2023-01-08T04:48:30.921Z,4.05
2023-01-08T04:51:02.900Z,4.01
2023-01-08T04:53:31.103Z,3.94
2023-01-08T04:56:04.144Z,3.88
2023-01-08T04:58:30.887Z,3.85
2023-01-08T05:00:57.621Z,3.84
2023-01-08T05:03:24.457Z,3.85
2023-01-08T05:05:51.230Z,3.81
2023-01-08T05:08:18.111Z,3.76
2023-01-08T05:10:44.917Z,3.69
2023-01-08T05:13:11.627Z,3.63
2023-01-08T05:15:38.405Z,3.56
2023-01-08T05:18:06.045Z,3.50
2023-01-08T05:20:33.864Z,3.46
2023-01-08T05:23:00.757Z,3.42
2023-01-08T05:25:27.685Z,3.33
2023-01-08T05:27:54.478Z,3.34
2023-01-08T05:30:21.186Z,3.31
2023-01-08T05:32:48.137Z,3.26
2023-01-08T05:35:14.873Z,3.24
2023-01-08T05:37:41.608Z,3.25
2023-01-08T05:40:08.893Z,3.26
2023-01-08T05:42:36.464Z,3.26
2023-01-08T05:45:07.756Z,3.29
2023-01-08T05:47:35.408Z,3.27
2023-01-08T05:50:02.459Z,3.27
2023-01-08T05:52:29.561Z,3.23
2023-01-08T05:54:56.362Z,3.16
2023-01-08T05:57:23.112Z,3.15
2023-01-08T05:59:49.854Z,3.10
2023-01-08T06:02:16.687Z,3.10
2023-01-08T06:04:44.096Z,3.10
2023-01-08T06:07:10.840Z,3.11
2023-01-08T06:09:38.009Z,3.08
2023-01-08T06:12:04.849Z,3.05
2023-01-08T06:14:31.632Z,3.04
2023-01-08T06:16:58.424Z,3.02
2023-01-08T06:19:25.307Z,2.99
2023-01-08T06:21:52.060Z,2.96
2023-01-08T06:24:18.829Z,2.97
2023-01-08T06:26:45.586Z,2.99
2023-01-08T06:29:12.374Z,3.04
2023-01-08T06:31:39.317Z,3.11
2023-01-08T06:34:06.017Z,3.22
2023-01-08T06:36:32.754Z,3.31
2023-01-08T06:38:59.643Z,3.34
2023-01-08T06:41:26.457Z,3.32
2023-01-08T06:43:53.165Z,3.30
2023-01-08T06:46:20.076Z,3.25
2023-01-08T06:48:46.840Z,3.17
2023-01-08T06:51:13.597Z,3.13
2023-01-08T06:53:40.470Z,3.09
2023-01-08T06:56:09.554Z,3.08
2023-01-08T06:58:38.023Z,3.02
2023-01-08T07:01:05.136Z,3.04
2023-01-08T07:03:32.016Z,3.07
2023-01-08T07:05:58.890Z,3.07
2023-01-08T07:08:25.817Z,3.01
2023-01-08T07:10:52.640Z,3.10
2023-01-08T07:13:19.382Z,3.12
2023-01-08T07:15:46.215Z,3.15
2023-01-08T07:18:13.666Z,3.17
2023-01-08T07:20:40.532Z,3.16
2023-01-08T07:23:10.503Z,3.11
2023-01-08T07:25:37.315Z,3.09
2023-01-08T07:28:04.107Z,3.08
2023-01-08T07:30:31.075Z,3.05
2023-01-08T07:32:59.751Z,3.01
2023-01-08T07:35:26.605Z,2.95
2023-01-08T07:37:53.398Z,2.92
2023-01-08T07:40:20.132Z,2.86
2023-01-08T07:42:46.952Z,2.82
2023-01-08T07:45:14.012Z,2.76
2023-01-08T07:47:40.767Z,2.74
2023-01-08T07:50:07.942Z,2.70
2023-01-08T07:52:34.725Z,2.70
2023-01-08T07:55:01.422Z,2.62
2023-01-08T07:57:29.650Z,2.57
2023-01-08T07:59:56.398Z,2.54
2023-01-08T08:02:23.227Z,2.58
2023-01-08T08:04:50.189Z,2.62
2023-01-08T08:07:16.982Z,2.68
2023-01-08T08:09:43.708Z,2.72
2023-01-08T08:12:10.439Z,2.80
2023-01-08T08:14:37.218Z,2.88
2023-01-08T08:17:03.948Z,2.88
2023-01-08T08:19:30.682Z,2.89
2023-01-08T08:21:57.430Z,2.91
2023-01-08T08:24:24.261Z,2.88
2023-01-08T08:26:51.712Z,2.86
2023-01-08T08:29:18.500Z,2.83
2023-01-08T08:31:45.256Z,2.79
2023-01-08T08:34:11.995Z,2.72
2023-01-08T08:36:38.788Z,2.65
2023-01-08T08:39:05.527Z,2.62
2023-01-08T08:41:32.232Z,2.58
2023-01-08T08:43:59.021Z,2.54
2023-01-08T08:46:26.261Z,2.52
2023-01-08T08:48:53.034Z,2.50
2023-01-08T08:51:19.813Z,2.52
2023-01-08T08:53:46.622Z,2.51
2023-01-08T08:56:13.430Z,2.49
2023-01-08T08:58:42.147Z,2.47
2023-01-08T09:01:09.072Z,2.43
2023-01-08T09:03:35.934Z,2.44
2023-01-08T09:06:02.875Z,2.44
2023-01-08T09:08:29.818Z,2.43
2023-01-08T09:10:56.571Z,2.44
2023-01-08T09:13:23.408Z,2.45
2023-01-08T09:15:50.216Z,2.45
2023-01-08T09:18:16.986Z,2.47
2023-01-08T09:20:43.755Z,2.50
2023-01-08T09:23:10.576Z,2.57
2023-01-08T09:25:37.371Z,2.68
2023-01-08T09:28:07.643Z,2.82
2023-01-08T09:30:35.116Z,2.95
2023-01-08T09:33:03.489Z,3.09
2023-01-08T09:35:31.976Z,3.23
2023-01-08T09:37:59.452Z,3.34
2023-01-08T09:40:36.864Z,3.40
2023-01-08T09:43:06.179Z,3.54
2023-01-08T09:45:38.111Z,3.68
2023-01-08T09:48:11.584Z,3.79
2023-01-08T09:50:38.635Z,3.90
2023-01-08T09:53:05.608Z,3.92
2023-01-08T09:55:34.453Z,3.93
2023-01-08T09:58:03.311Z,3.99
2023-01-08T10:00:33.935Z,4.06
2023-01-08T10:03:00.970Z,4.22
2023-01-08T10:05:28.844Z,4.29
2023-01-08T10:07:55.797Z,4.41
2023-01-08T10:10:27.192Z,4.46
2023-01-08T10:12:54.740Z,4.44
2023-01-08T10:15:22.985Z,4.48
2023-01-08T10:18:11.243Z,4.50
2023-01-08T10:20:39.486Z,4.49
2023-01-08T10:23:14.025Z,4.46
2023-01-08T10:25:53.374Z,4.38
2023-01-08T10:28:22.603Z,4.28
2023-01-08T10:30:51.532Z,4.20
2023-01-08T10:33:25.141Z,4.10
2023-01-08T10:36:00.492Z,4.05
2023-01-08T10:38:33.648Z,4.01
2023-01-08T10:41:03.600Z,4.02
2023-01-08T10:43:36.140Z,4.03
2023-01-08T10:46:04.703Z,4.09
2023-01-08T10:48:36.512Z,4.10
2023-01-08T10:51:07.957Z,4.13
2023-01-08T10:53:34.812Z,4.22
2023-01-08T10:56:03.980Z,4.35
2023-01-08T10:58:40.839Z,4.51
2023-01-08T11:01:18.911Z,4.77
2023-01-08T11:03:51.317Z,4.93
2023-01-08T11:06:23.150Z,5.03
2023-01-08T11:09:01.635Z,5.12
2023-01-08T11:11:38.519Z,5.17
2023-01-08T11:14:18.916Z,5.22
2023-01-08T11:16:46.692Z,5.44
2023-01-08T11:19:28.942Z,5.57
2023-01-08T11:22:04.237Z,5.71
2023-01-08T11:24:34.642Z,5.83
2023-01-08T11:27:17.088Z,5.96
2023-01-08T11:29:50.100Z,6.19
2023-01-08T11:32:39.930Z,6.32
2023-01-08T11:35:13.960Z,6.48
2023-01-08T11:38:02.423Z,6.52
2023-01-08T11:40:37.906Z,6.55
2023-01-08T11:43:13.499Z,6.54
2023-01-08T11:46:08.864Z,6.59
2023-01-08T11:48:57.328Z,6.65
2023-01-08T11:51:47.901Z,6.61
2023-01-08T11:54:36.023Z,6.48
2023-01-08T11:57:09.050Z,6.44
2023-01-08T11:59:56.750Z,6.46
2023-01-08T12:02:41.582Z,6.45
2023-01-08T12:05:35.786Z,6.35
2023-01-08T12:08:02.447Z,6.37
2023-01-08T12:10:41.319Z,6.36
2023-01-08T12:13:29.804Z,6.36
2023-01-08T12:16:29.434Z,6.25
2023-01-08T12:19:05.507Z,6.23
2023-01-08T12:21:57.103Z,6.23
2023-01-08T12:24:33.901Z,6.24
2023-01-08T12:27:54.604Z,6.31
2023-01-08T12:30:30.982Z,6.41
2023-01-08T12:33:37.581Z,6.50
2023-01-08T12:36:10.877Z,6.67
2023-01-08T12:38:45.249Z,6.85
2023-01-08T12:41:16.535Z,7.10
2023-01-08T12:43:45.927Z,7.28
2023-01-08T12:46:17.110Z,7.51
2023-01-08T12:48:46.166Z,7.60
2023-01-08T12:51:31.770Z,7.69
2023-01-08T12:54:14.722Z,7.81
2023-01-08T12:57:12.097Z,7.82
2023-01-08T12:59:53.604Z,7.81
2023-01-08T13:02:39.032Z,7.78
2023-01-08T13:05:38.125Z,7.74
2023-01-08T13:08:24.601Z,7.76
2023-01-08T13:10:54.547Z,7.88
2023-01-08T13:13:33.401Z,7.90
2023-01-08T13:16:21.363Z,7.94
2023-01-08T13:19:04.612Z,7.88
2023-01-08T13:21:51.330Z,7.90
2023-01-08T13:24:37.404Z,7.94
2023-01-08T13:27:19.171Z,7.97
2023-01-08T13:29:47.939Z,7.97
2023-01-08T13:32:35.214Z,7.91
2023-01-08T13:35:17.192Z,7.91
2023-01-08T13:37:50.876Z,8.01
2023-01-08T13:40:36.218Z,8.02
2023-01-08T13:43:04.983Z,8.18
2023-01-08T13:45:32.643Z,8.28
2023-01-08T13:48:00.630Z,8.37
2023-01-08T13:50:31.031Z,8.40
2023-01-08T13:52:59.793Z,8.55
2023-01-08T13:55:30.955Z,8.65
2023-01-08T13:58:04.777Z,8.70
2023-01-08T14:00:44.753Z,8.77
2023-01-08T14:03:30.662Z,8.64
2023-01-08T14:06:17.879Z,8.62
2023-01-08T14:08:56.757Z,8.74
2023-01-08T14:11:28.604Z,8.87
2023-01-08T14:13:56.321Z,8.94
2023-01-08T14:16:23.765Z,8.96
2023-01-08T14:18:51.453Z,8.99
2023-01-08T14:21:23.175Z,8.93
2023-01-08T14:23:52.827Z,8.85
2023-01-08T14:26:29.695Z,8.69
2023-01-08T14:28:56.972Z,8.52
2023-01-08T14:31:27.667Z,8.20
2023-01-08T14:34:00.145Z,8.10
2023-01-08T14:36:27.408Z,8.15
2023-01-08T14:38:54.176Z,8.10
2023-01-08T14:41:54.271Z,7.86
2023-01-08T14:44:29.209Z,7.79
2023-01-08T14:47:03.887Z,7.65
2023-01-08T14:49:34.400Z,7.55
2023-01-08T14:52:03.032Z,7.35
2023-01-08T14:54:33.753Z,7.25
2023-01-08T14:57:03.034Z,7.11
2023-01-08T14:59:38.055Z,7.05
2023-01-08T15:02:13.680Z,6.96
2023-01-08T15:04:40.608Z,6.86
2023-01-08T15:07:27.630Z,6.75
2023-01-08T15:09:59.114Z,6.68
2023-01-08T15:12:28.420Z,6.60
2023-01-08T15:14:55.393Z,6.56
2023-01-08T15:17:25.828Z,6.54
2023-01-08T15:19:58.484Z,6.54
2023-01-08T15:22:28.233Z,6.52
2023-01-08T15:24:58.769Z,6.54
2023-01-08T15:27:27.283Z,6.57
2023-01-08T15:30:00.333Z,6.64
2023-01-08T15:32:37.503Z,6.79
2023-01-08T15:35:15.639Z,6.87
2023-01-08T15:37:42.478Z,6.90
2023-01-08T15:40:11.301Z,6.86
2023-01-08T15:42:56.629Z,6.77
2023-01-08T15:45:28.619Z,6.62
2023-01-08T15:47:55.649Z,6.47
2023-01-08T15:50:23.673Z,6.34
2023-01-08T15:52:50.626Z,6.26
2023-01-08T15:55:20.590Z,6.22
2023-01-08T15:57:47.955Z,6.21
2023-01-08T16:00:16.833Z,6.25
2023-01-08T16:02:48.194Z,6.30
2023-01-08T16:05:16.469Z,6.33
2023-01-08T16:07:43.541Z,6.38
2023-01-08T16:10:10.869Z,6.37
2023-01-08T16:12:37.570Z,6.35
2023-01-08T16:15:08.073Z,6.37
2023-01-08T16:17:36.686Z,6.38
2023-01-08T16:20:04.998Z,6.40
2023-01-08T16:22:31.739Z,6.33
2023-01-08T16:24:58.561Z,6.24
2023-01-08T16:27:25.361Z,6.10
2023-01-08T16:29:52.088Z,5.96
2023-01-08T16:32:18.873Z,5.79
2023-01-08T16:34:45.581Z,5.63
2023-01-08T16:37:12.321Z,5.49
2023-01-08T16:39:39.135Z,5.36
2023-01-08T16:42:05.922Z,5.23
2023-01-08T16:44:36.466Z,5.16
2023-01-08T16:47:03.265Z,5.18
2023-01-08T16:49:30.208Z,5.26
2023-01-08T16:51:56.963Z,5.30
2023-01-08T16:54:23.731Z,5.37
2023-01-08T16:56:52.413Z,5.45
2023-01-08T16:59:23.805Z,5.55
2023-01-08T17:01:51.876Z,5.72
2023-01-08T17:04:19.033Z,5.84
2023-01-08T17:06:47.033Z,5.93
2023-01-08T17:09:14.916Z,6.00
2023-01-08T17:11:42.576Z,6.05
2023-01-08T17:14:09.922Z,6.07
2023-01-08T17:16:36.906Z,6.09
2023-01-08T17:19:03.752Z,6.10
2023-01-08T17:21:30.537Z,6.11
2023-01-08T17:23:57.329Z,6.15
2023-01-08T17:26:25.177Z,6.16
2023-01-08T17:28:51.957Z,6.16
2023-01-08T17:31:19.806Z,6.16
2023-01-08T17:33:51.087Z,6.18
2023-01-08T17:36:22.807Z,6.17
2023-01-08T17:38:50.810Z,6.16
2023-01-08T17:41:37.785Z,6.15
2023-01-08T17:44:09.035Z,6.16
2023-01-08T17:46:38.039Z,6.14
2023-01-08T17:49:04.913Z,6.10
2023-01-08T17:51:33.528Z,6.01
2023-01-08T17:54:00.976Z,5.93
2023-01-08T17:56:27.991Z,5.87
2023-01-08T17:58:54.774Z,5.83
2023-01-08T18:01:22.252Z,5.84
2023-01-08T18:03:49.700Z,5.86
2023-01-08T18:06:16.637Z,5.84
2023-01-08T18:08:43.512Z,5.86
2023-01-08T18:11:10.968Z,5.98
2023-01-08T18:13:38.660Z,6.07
2023-01-08T18:16:11.024Z,6.12
2023-01-08T18:18:39.008Z,6.14
2023-01-08T18:21:06.929Z,6.15
2023-01-08T18:23:33.955Z,6.15
2023-01-08T18:26:08.403Z,6.15
2023-01-08T18:28:36.029Z,6.12
2023-01-08T18:31:07.439Z,6.12
2023-01-08T18:33:34.329Z,6.12
2023-01-08T18:36:06.444Z,6.07
2023-01-08T18:38:33.503Z,5.99
2023-01-08T18:41:00.240Z,5.92
2023-01-08T18:43:27.119Z,5.85
2023-01-08T18:46:05.978Z,5.83
2023-01-08T18:48:33.869Z,5.84
2023-01-08T18:51:07.617Z,5.84
2023-01-08T18:53:34.476Z,5.79
2023-01-08T18:56:02.002Z,5.77
2023-01-08T18:58:29.661Z,5.69
2023-01-08T19:01:01.964Z,5.65
2023-01-08T19:03:28.728Z,5.69
2023-01-08T19:05:55.473Z,5.75
2023-01-08T19:08:22.247Z,5.78
2023-01-08T19:10:50.263Z,5.83
2023-01-08T19:13:17.499Z,5.88
2023-01-08T19:15:44.266Z,5.93
2023-01-08T19:18:11.054Z,5.98
2023-01-08T19:20:43.482Z,5.99
2023-01-08T19:23:11.054Z,5.98
2023-01-08T19:25:42.869Z,5.96
2023-01-08T19:28:09.641Z,5.91
2023-01-08T19:30:37.727Z,5.82
2023-01-08T19:33:04.544Z,5.77
2023-01-08T19:35:31.428Z,5.68
2023-01-08T19:37:58.335Z,5.69
2023-01-08T19:40:25.073Z,5.71
2023-01-08T19:43:10.613Z,5.77
2023-01-08T19:45:37.609Z,5.90
2023-01-08T19:48:04.585Z,5.97
2023-01-08T19:50:32.175Z,5.98
2023-01-08T19:52:58.956Z,5.94
2023-01-08T19:55:26.127Z,5.87
2023-01-08T19:57:54.675Z,5.83
2023-01-08T20:00:24.535Z,5.74
2023-01-08T20:02:51.746Z,5.63
2023-01-08T20:05:18.708Z,5.60
2023-01-08T20:07:45.670Z,5.62
2023-01-08T20:10:13.204Z,5.72
2023-01-08T20:12:40.289Z,5.78
2023-01-08T20:15:07.568Z,5.81
2023-01-08T20:17:34.344Z,5.79
2023-01-08T20:20:01.130Z,5.74
2023-01-08T20:22:29.179Z,5.65
2023-01-08T20:24:58.311Z,5.58
2023-01-08T20:27:25.322Z,5.49
2023-01-08T20:29:52.085Z,5.41
2023-01-08T20:32:21.045Z,5.35
2023-01-08T20:34:49.708Z,5.32
2023-01-08T20:37:16.484Z,5.32
2023-01-08T20:39:43.288Z,5.35
2023-01-08T20:42:12.069Z,5.36
2023-01-08T20:44:38.914Z,5.35
2023-01-08T20:47:05.653Z,5.33
2023-01-08T20:49:32.477Z,5.28
2023-01-08T20:52:00.526Z,5.22
2023-01-08T20:54:28.965Z,5.09
2023-01-08T20:56:59.673Z,5.06
2023-01-08T20:59:26.517Z,5.03
2023-01-08T21:01:53.821Z,5.02
2023-01-08T21:04:20.962Z,4.99
2023-01-08T21:06:47.801Z,4.97
2023-01-08T21:09:16.676Z,4.97
2023-01-08T21:11:43.726Z,5.01
2023-01-08T21:14:11.085Z,5.11
2023-01-08T21:16:39.755Z,5.27
2023-01-08T21:19:06.851Z,5.49
2023-01-08T21:21:36.529Z,5.63
2023-01-08T21:24:08.916Z,5.78
2023-01-08T21:26:37.200Z,5.85
2023-01-08T21:29:06.594Z,5.85
2023-01-08T21:31:34.260Z,5.78
2023-01-08T21:34:03.268Z,5.71
2023-01-08T21:36:31.985Z,5.57
2023-01-08T21:39:00.844Z,5.46
2023-01-08T21:41:47.354Z,5.35
2023-01-08T21:44:41.145Z,5.26
2023-01-08T21:47:14.573Z,5.16
2023-01-08T21:49:41.656Z,5.08
2023-01-08T21:52:26.934Z,4.97
2023-01-08T21:54:54.103Z,4.87
2023-01-08T21:57:20.865Z,4.79
2023-01-08T21:59:51.229Z,4.73
2023-01-08T22:02:20.226Z,4.67
2023-01-08T22:04:47.401Z,4.59
2023-01-08T22:07:15.435Z,4.58
2023-01-08T22:09:42.356Z,4.60
2023-01-08T22:12:09.232Z,4.60
2023-01-08T22:14:36.040Z,4.57
2023-01-08T22:17:04.358Z,4.51
2023-01-08T22:19:31.383Z,4.49
2023-01-08T22:21:58.133Z,4.59
2023-01-08T22:24:24.911Z,4.73
2023-01-08T22:26:51.741Z,4.85
2023-01-08T22:29:18.522Z,4.96
2023-01-08T22:31:45.660Z,5.02
2023-01-08T22:34:17.155Z,5.03
2023-01-08T22:36:45.016Z,4.96
2023-01-08T22:39:12.556Z,4.86
2023-01-08T22:41:39.254Z,4.76
2023-01-08T22:44:06.069Z,4.69
2023-01-08T22:46:33.178Z,4.61
2023-01-08T22:48:59.911Z,4.55
2023-01-08T22:51:29.542Z,4.52
2023-01-08T22:53:57.699Z,4.49
2023-01-08T22:56:25.446Z,4.58
2023-01-08T22:58:52.338Z,4.64
2023-01-08T23:01:27.873Z,4.73
2023-01-08T23:04:00.277Z,4.80
2023-01-08T23:06:32.466Z,4.88
2023-01-08T23:08:59.963Z,4.92
2023-01-08T23:11:27.658Z,4.90
2023-01-08T23:13:55.246Z,4.85
2023-01-08T23:16:24.797Z,4.85
2023-01-08T23:18:52.719Z,4.84
2023-01-08T23:21:22.103Z,4.89
2023-01-08T23:23:49.299Z,4.99
2023-01-08T23:26:17.872Z,5.08
2023-01-08T23:28:45.819Z,5.19
2023-01-08T23:31:15.437Z,5.26
2023-01-08T23:33:42.350Z,5.24
2023-01-08T23:36:09.734Z,5.23
2023-01-08T23:38:36.470Z,5.21
2023-01-08T23:41:06.326Z,5.23
2023-01-08T23:43:33.140Z,5.32
2023-01-08T23:46:04.379Z,5.44
2023-01-08T23:48:31.199Z,5.58
2023-01-08T23:50:58.290Z,5.69
2023-01-08T23:53:25.134Z,5.80
2023-01-08T23:55:51.963Z,5.83
2023-01-08T23:58:18.783Z,5.87
